Overview Statistics Trail Chart Weather Telemetry Raw packets
 

This is the latest recevied weather packets stored in our database for station/object HS5XHC-1. If no packets are shown the sender has not sent any weather packets the latest 10 day(s).

<< 4 5 6 7 8 9 10 >>
Time Temp. Humidity Pressure Rain* Wind** Luminosity Snow
1777793944 37.78° C 28% 963 hPa - - 0 W/m² -
1777793320 37.22° C 27% 964 hPa - - 0 W/m² -
1777792696 37.22° C 27% 964 hPa - - 0 W/m² -
1777792072 36.67° C 27% 964 hPa - - 0 W/m² -
1777791448 36.67° C 28% 964 hPa - - 0 W/m² -
1777790824 37.22° C 28% 965 hPa - - 0 W/m² -
1777790200 36.67° C 30% 965 hPa - - 0 W/m² -
1777789576 36.67° C 28% 965 hPa - - 0 W/m² -
1777788952 36.11° C 29% 965 hPa - - 0 W/m² -
1777788328 35.56° C 31% 966 hPa - - 0 W/m² -
1777787704 36.11° C 30% 966 hPa - - 0 W/m² -
1777787080 35° C 32% 966 hPa - - 0 W/m² -
1777786456 35.56° C 32% 966 hPa - - 0 W/m² -
1777785832 35° C 33% 967 hPa - - 0 W/m² -
1777785208 35° C 32% 967 hPa - - 0 W/m² -
1777784603 34.44° C 32% 967 hPa - - 0 W/m² -
1777783960 35° C 31% 967 hPa - - 0 W/m² -
1777783336 35° C 32% 967 hPa - - 0 W/m² -
1777782712 33.89° C 35% 967 hPa - - 0 W/m² -
1777782088 34.44° C 33% 968 hPa - - 0 W/m² -
1777781464 33.89° C 36% 968 hPa - - 0 W/m² -
1777780840 32.78° C 38% 968 hPa - - 0 W/m² -
1777780216 32.22° C 37% 968 hPa - - 0 W/m² -
1777779592 32.22° C 38% 968 hPa - - 0 W/m² -
1777778968 32.22° C 39% 968 hPa - - 0 W/m² -

* Rain since midnight (hover to see other rain measurements)
** Current wind speed in m/s (hover to see current wind gust speed)